Time;durP1;ratioP1;P1;durP2;ratioP2;P2;SDS_P1;SDS_P2;PMS_P1;PMS_P2;Temp;Humidity;BMP_temperature;BMP_pressure;BME280_temperature;BME280_humidity;BME280_pressure;Samples;Min_cycle;Max_cycle;Signal;HPM_P1;HPM_P2
2023/04/10 00:01:34;;;;;;;0.10;0.10;;;;;;;6.44;80.69;97285.50;5073704;28;20638;-71
2023/04/10 00:04:01;;;;;;;0.10;0.10;;;;;;;6.42;80.39;97285.69;5073480;28;20208;-71
2023/04/10 00:06:27;;;;;;;0.10;0.10;;;;;;;6.37;80.71;97282.84;5073443;28;20186;-71
2023/04/10 00:08:52;;;;;;;0.00;0.00;;;;;;;6.37;80.90;97287.25;5073432;28;20195;-71
2023/04/10 00:11:18;;;;;;;0.10;0.10;;;;;;;6.32;80.77;97276.59;5073139;28;20205;-71
2023/04/10 00:13:43;;;;;;;0.10;0.10;;;;;;;6.42;80.57;97283.06;5072781;28;20661;-71
2023/04/10 00:16:09;;;;;;;0.10;0.10;;;;;;;6.36;80.22;97276.00;5073381;28;20192;-71
2023/04/10 00:18:34;;;;;;;0.10;0.10;;;;;;;6.26;80.42;97275.53;5073631;28;20185;-71
2023/04/10 00:21:02;;;;;;;0.10;0.10;;;;;;;6.39;79.90;97273.06;5072865;28;20276;-71
2023/04/10 00:23:27;;;;;;;0.10;0.10;;;;;;;6.31;80.26;97267.16;5073149;28;20233;-71
2023/04/10 00:25:52;;;;;;;0.10;0.10;;;;;;;6.29;80.16;97269.16;5073234;28;20200;-71
2023/04/10 00:28:18;;;;;;;0.10;0.10;;;;;;;6.35;80.30;97273.63;5073138;28;20186;-71
2023/04/10 00:30:43;;;;;;;0.10;0.10;;;;;;;6.36;80.04;97275.22;5073191;28;20183;-68
2023/04/10 00:33:08;;;;;;;0.10;0.10;;;;;;;6.34;80.34;97280.63;5073050;28;20189;-69
2023/04/10 00:35:34;;;;;;;0.10;0.10;;;;;;;6.23;80.74;97274.13;5073430;28;20239;-69
2023/04/10 00:37:59;;;;;;;0.10;0.10;;;;;;;6.19;81.24;97270.25;5072901;28;20181;-72
2023/04/10 00:40:25;;;;;;;0.10;0.10;;;;;;;6.14;81.23;97275.22;5054597;28;20177;-72
2023/04/10 00:42:50;;;;;;;0.10;0.10;;;;;;;6.12;81.74;97276.41;5072724;28;20195;-72
2023/04/10 00:45:16;;;;;;;0.00;0.00;;;;;;;6.16;81.58;97265.44;5071847;28;20189;-71
2023/04/10 00:47:41;;;;;;;0.00;0.00;;;;;;;6.15;81.92;97257.81;5073081;28;20197;-71
2023/04/10 00:50:07;;;;;;;0.10;0.10;;;;;;;6.16;81.28;97267.25;5055204;28;20186;-71
2023/04/10 00:52:32;;;;;;;0.10;0.10;;;;;;;6.10;81.57;97257.56;5072466;28;20712;-71
2023/04/10 00:54:57;;;;;;;0.10;0.10;;;;;;;6.09;81.86;97255.97;5072840;28;20187;-71
2023/04/10 00:57:23;;;;;;;0.10;0.10;;;;;;;6.08;82.18;97255.16;5072185;28;20668;-71
2023/04/10 00:59:50;;;;;;;0.10;0.10;;;;;;;6.04;82.20;97259.13;5072540;28;20541;-72
2023/04/10 01:02:16;;;;;;;0.10;0.10;;;;;;;6.03;82.10;97264.50;5072815;28;20235;-71
2023/04/10 01:04:42;;;;;;;0.10;0.10;;;;;;;5.99;82.01;97258.88;5072707;28;20637;-71
2023/04/10 01:07:20;;;;;;;0.10;0.10;;;;;;;5.97;82.10;97253.03;5072704;28;20264;-71
2023/04/10 01:10:10;;;;;;;0.10;0.10;;;;;;;5.91;82.39;97258.22;5056794;28;20177;-72
2023/04/10 01:12:57;;;;;;;0.20;0.20;;;;;;;5.99;82.15;97260.69;5072744;28;20201;-71
2023/04/10 01:15:27;;;;;;;0.10;0.10;;;;;;;5.95;82.31;97260.25;5072300;28;20174;-72
2023/04/10 01:18:03;;;;;;;0.10;0.10;;;;;;;5.94;82.31;97257.81;5072641;28;20189;-71
2023/04/10 01:20:32;;;;;;;0.10;0.10;;;;;;;5.90;82.03;97262.59;5072460;28;20646;-72
2023/04/10 01:23:18;;;;;;;0.10;0.10;;;;;;;5.86;81.91;97262.13;5072201;28;20737;-71
2023/04/10 01:26:01;;;;;;;0.10;0.10;;;;;;;5.85;82.09;97262.31;5072430;28;20177;-72
2023/04/10 01:28:45;;;;;;;0.10;0.10;;;;;;;5.93;81.59;97256.22;5072700;28;20169;-72
2023/04/10 01:31:16;;;;;;;0.10;0.10;;;;;;;5.85;81.74;97263.09;5072043;28;20209;-72
2023/04/10 01:33:48;;;;;;;0.10;0.10;;;;;;;5.81;81.78;97264.47;5072513;28;20197;-72
2023/04/10 01:36:20;;;;;;;0.10;0.10;;;;;;;5.81;81.20;97261.06;5072158;28;20657;-72
2023/04/10 01:38:48;;;;;;;0.00;0.00;;;;;;;5.86;80.95;97263.91;5072547;28;20177;-72
2023/04/10 01:41:14;;;;;;;0.10;0.10;;;;;;;5.83;80.98;97262.50;5071934;28;20189;-72
2023/04/10 01:43:41;;;;;;;0.00;0.00;;;;;;;5.79;80.80;97263.88;5072814;28;20183;-72
2023/04/10 01:46:07;;;;;;;0.10;0.10;;;;;;;5.77;81.34;97259.84;5072392;28;20193;-72
2023/04/10 01:48:33;;;;;;;0.10;0.10;;;;;;;5.72;81.74;97257.78;5072311;28;20181;-71
2023/04/10 01:51:03;;;;;;;0.10;0.10;;;;;;;5.76;82.18;97255.63;5071837;28;20217;-72
2023/04/10 01:53:30;;;;;;;0.10;0.10;;;;;;;5.73;82.02;97258.59;5086596;28;20185;-72
2023/04/10 01:55:56;;;;;;;0.00;0.00;;;;;;;5.73;82.22;97256.81;5073018;28;20180;-72
2023/04/10 01:58:21;;;;;;;0.10;0.10;;;;;;;5.71;82.21;97247.56;5076182;28;20185;-72
2023/04/10 02:00:47;;;;;;;0.10;0.10;;;;;;;5.65;82.67;97243.91;5075908;28;20552;-72
2023/04/10 02:03:12;;;;;;;0.10;0.10;;;;;;;5.66;82.97;97242.09;5075816;28;20659;-72
2023/04/10 02:06:09;;;;;;;0.10;0.10;;;;;;;5.59;83.27;97244.63;5076326;28;20189;-72
2023/04/10 02:09:22;;;;;;;0.10;0.10;;;;;;;5.66;83.48;97237.72;5075509;28;20637;-72
2023/04/10 02:11:57;;;;;;;0.10;0.10;;;;;;;5.61;83.30;97240.06;4977646;28;20643;-71
2023/04/10 02:14:27;;;;;;;0.10;0.10;;;;;;;5.43;83.98;97235.25;4993940;28;20190;-71
2023/04/10 02:16:54;;;;;;;0.10;0.10;;;;;;;5.53;84.07;97234.16;4994377;28;20204;-72
2023/04/10 02:19:22;;;;;;;0.10;0.10;;;;;;;5.51;83.99;97234.38;4993633;28;20214;-72
2023/04/10 02:21:49;;;;;;;0.10;0.10;;;;;;;5.51;84.39;97234.38;4993763;28;20223;-71
2023/04/10 02:24:14;;;;;;;0.10;0.10;;;;;;;5.43;84.79;97234.47;4994213;28;20192;-71
2023/04/10 02:27:06;;;;;;;0.10;0.10;;;;;;;5.33;85.15;97239.16;4993988;28;20192;-72
2023/04/10 02:29:31;;;;;;;0.00;0.00;;;;;;;5.38;85.35;97244.59;4992933;28;20665;-71
2023/04/10 02:31:59;;;;;;;0.20;0.20;;;;;;;5.45;85.65;97245.50;4993828;28;20277;-72
2023/04/10 02:34:24;;;;;;;0.10;0.10;;;;;;;5.46;85.48;97239.31;4993714;28;20196;-72
2023/04/10 02:36:50;;;;;;;0.10;0.10;;;;;;;5.40;85.76;97234.84;4977611;28;20192;-71
2023/04/10 02:39:15;;;;;;;0.10;0.10;;;;;;;5.41;85.87;97245.03;4977487;28;20311;-72
2023/04/10 02:41:40;;;;;;;0.17;0.17;;;;;;;5.37;86.44;97249.00;5010909;28;20216;-71
2023/04/10 02:44:06;;;;;;;0.10;0.10;;;;;;;5.37;86.57;97245.59;5075226;28;20243;-71
2023/04/10 02:46:31;;;;;;;0.10;0.10;;;;;;;5.34;86.95;97244.16;5074848;28;20201;-72
2023/04/10 02:48:58;;;;;;;0.17;0.17;;;;;;;5.33;86.94;97249.53;5075130;28;20177;-72
2023/04/10 02:51:23;;;;;;;0.10;0.10;;;;;;;5.39;86.82;97244.44;5078546;28;20212;-72
2023/04/10 02:53:48;;;;;;;0.10;0.10;;;;;;;5.44;86.89;97241.28;5081943;28;20584;-72
2023/04/10 02:56:14;;;;;;;0.10;0.10;;;;;;;5.36;87.25;97247.38;5075094;28;20189;-72
2023/04/10 02:58:44;;;;;;;0.10;0.10;;;;;;;5.39;86.85;97246.22;5075076;28;20178;-71
2023/04/10 03:01:09;;;;;;;0.10;0.10;;;;;;;5.34;87.34;97249.38;5074543;28;20177;-72
2023/04/10 03:03:34;;;;;;;0.10;0.10;;;;;;;5.33;87.11;97249.53;5074361;28;20181;-72
2023/04/10 03:06:00;;;;;;;0.10;0.10;;;;;;;5.31;87.57;97247.13;5074525;28;20185;-72
2023/04/10 03:08:25;;;;;;;0.10;0.10;;;;;;;5.22;87.68;97250.81;5073532;28;20192;-72
2023/04/10 03:10:50;;;;;;;0.20;0.20;;;;;;;5.26;87.90;97248.66;5073901;28;20231;-72
2023/04/10 03:13:16;;;;;;;0.10;0.10;;;;;;;5.24;87.74;97248.81;5074103;28;20193;-72
2023/04/10 03:15:41;;;;;;;0.10;0.10;;;;;;;5.20;88.22;97250.19;5056266;28;20199;-72
2023/04/10 03:18:08;;;;;;;0.10;0.10;;;;;;;5.22;87.95;97256.00;5074373;28;20190;-72
2023/04/10 03:20:35;;;;;;;0.10;0.10;;;;;;;5.30;87.54;97247.28;5074830;28;20261;-72
2023/04/10 03:23:01;;;;;;;0.10;0.10;;;;;;;5.14;87.84;97237.09;5074165;28;20229;-72
2023/04/10 03:25:27;;;;;;;0.10;0.10;;;;;;;5.19;88.12;97237.34;5074602;28;20704;-72
2023/04/10 03:27:52;;;;;;;0.10;0.10;;;;;;;5.16;87.73;97235.94;5074474;28;20193;-72
2023/04/10 03:30:17;;;;;;;0.10;0.10;;;;;;;5.17;87.72;97232.38;5074477;28;20189;-73
2023/04/10 03:32:43;;;;;;;0.10;0.10;;;;;;;5.18;87.76;97233.19;5074170;28;20251;-72
2023/04/10 03:35:09;;;;;;;0.10;0.10;;;;;;;5.04;87.78;97224.41;5056542;28;20178;-72
2023/04/10 03:37:35;;;;;;;0.13;0.13;;;;;;;4.98;88.08;97222.53;5074693;28;20196;-72
2023/04/10 03:40:00;;;;;;;0.10;0.10;;;;;;;5.03;87.56;97222.78;5074698;28;20193;-72
2023/04/10 03:42:26;;;;;;;0.10;0.10;;;;;;;4.98;87.36;97225.13;5074322;28;20185;-72
2023/04/10 03:44:51;;;;;;;0.10;0.10;;;;;;;5.04;87.59;97227.00;5073914;28;20181;-72
2023/04/10 03:47:16;;;;;;;0.10;0.10;;;;;;;5.09;86.66;97218.66;5073949;28;20649;-72
2023/04/10 03:49:42;;;;;;;0.10;0.10;;;;;;;5.03;87.17;97215.00;5074038;28;20184;-71
2023/04/10 03:52:07;;;;;;;0.10;0.10;;;;;;;5.10;86.80;97213.28;5085690;28;20269;-72
2023/04/10 03:54:32;;;;;;;0.10;0.10;;;;;;;5.04;86.41;97206.22;5077229;28;20213;-72
2023/04/10 03:57:00;;;;;;;0.10;0.10;;;;;;;5.09;86.81;97211.66;5073647;28;20181;-72
2023/04/10 03:59:25;;;;;;;0.20;0.20;;;;;;;5.08;86.55;97209.25;5056186;28;20284;-72
2023/04/10 04:01:51;;;;;;;0.10;0.10;;;;;;;5.06;87.34;97219.03;5073258;28;20201;-72
2023/04/10 04:04:17;;;;;;;0.10;0.10;;;;;;;4.93;88.42;97220.47;5074235;28;20558;-72
2023/04/10 04:06:42;;;;;;;0.10;0.10;;;;;;;4.81;90.09;97216.72;5073398;28;20190;-72
2023/04/10 04:09:07;;;;;;;0.10;0.10;;;;;;;4.83;91.14;97219.13;5073550;28;20264;-72
2023/04/10 04:11:33;;;;;;;0.10;0.10;;;;;;;4.78;91.52;97222.28;5073643;28;20205;-71
2023/04/10 04:13:58;;;;;;;0.10;0.10;;;;;;;4.67;91.71;97216.72;5072529;28;20287;-72
2023/04/10 04:16:24;;;;;;;0.10;0.10;;;;;;;4.62;91.63;97212.06;5073177;28;20644;-72
2023/04/10 04:18:49;;;;;;;0.10;0.10;;;;;;;4.58;92.26;97205.59;5072930;28;20696;-72
2023/04/10 04:21:15;;;;;;;0.10;0.10;;;;;;;4.61;92.39;97207.84;5073698;28;20200;-72
2023/04/10 04:23:40;;;;;;;0.10;0.10;;;;;;;4.59;91.96;97202.84;5073391;28;20228;-72
2023/04/10 04:26:05;;;;;;;0.10;0.10;;;;;;;4.61;91.82;97202.66;5073314;28;20264;-72
2023/04/10 04:28:31;;;;;;;0.10;0.10;;;;;;;4.66;91.57;97202.94;5072736;28;20529;-72
2023/04/10 04:30:56;;;;;;;0.10;0.10;;;;;;;4.69;90.88;97206.94;5072561;28;20182;-72
2023/04/10 04:33:21;;;;;;;0.10;0.10;;;;;;;4.75;90.19;97204.44;5073282;28;20177;-72
2023/04/10 04:35:48;;;;;;;0.10;0.10;;;;;;;4.67;91.18;97208.94;5072859;28;20205;-72
2023/04/10 04:38:15;;;;;;;0.10;0.10;;;;;;;4.73;89.90;97203.03;5072156;28;20187;-72
2023/04/10 04:40:40;;;;;;;0.10;0.10;;;;;;;4.72;89.95;97196.22;5073189;28;20177;-72
2023/04/10 04:43:06;;;;;;;0.10;0.10;;;;;;;4.74;90.04;97202.81;5072624;28;20637;-70
2023/04/10 04:45:31;;;;;;;0.10;0.10;;;;;;;4.81;89.02;97201.13;5072804;28;20197;-70
2023/04/10 04:47:56;;;;;;;0.00;0.00;;;;;;;4.81;88.83;97198.53;5073340;28;20284;-70
2023/04/10 04:50:22;;;;;;;0.10;0.10;;;;;;;4.85;88.69;97201.56;5072859;28;20197;-71
2023/04/10 04:52:48;;;;;;;0.00;0.00;;;;;;;4.92;88.33;97197.25;5068029;28;20209;-70
2023/04/10 04:55:13;;;;;;;0.10;0.10;;;;;;;4.90;87.79;97200.03;5054961;28;20566;-71
2023/04/10 04:57:38;;;;;;;0.10;0.10;;;;;;;4.97;86.86;97195.75;5072442;28;20537;-72
2023/04/10 05:00:05;;;;;;;0.10;0.10;;;;;;;5.07;86.65;97198.03;5072875;28;20653;-72
2023/04/10 05:02:30;;;;;;;0.10;0.10;;;;;;;5.15;85.61;97192.75;5072238;28;20666;-71
2023/04/10 05:04:55;;;;;;;0.17;0.17;;;;;;;5.28;84.34;97190.31;5072625;28;20192;-71
2023/04/10 05:07:21;;;;;;;0.10;0.10;;;;;;;5.50;82.82;97200.75;5072330;28;20199;-72
2023/04/10 05:09:46;;;;;;;0.10;0.10;;;;;;;5.69;82.15;97207.91;5072821;28;20181;-71
2023/04/10 05:12:11;;;;;;;0.10;0.10;;;;;;;5.86;80.48;97202.28;5072035;28;20674;-70
2023/04/10 05:14:37;;;;;;;0.10;0.10;;;;;;;6.04;79.86;97206.28;5071117;28;20180;-71
2023/04/10 05:17:02;;;;;;;0.10;0.10;;;;;;;6.23;77.78;97198.66;5072748;28;20278;-71
2023/04/10 05:19:27;;;;;;;0.00;0.00;;;;;;;6.20;77.53;97193.81;5072727;28;20193;-71
2023/04/10 05:21:53;;;;;;;0.10;0.10;;;;;;;6.27;77.22;97196.47;5072111;28;20267;-71
2023/04/10 05:24:18;;;;;;;0.10;0.10;;;;;;;6.35;76.14;97198.94;5072562;28;20189;-71
2023/04/10 05:26:43;;;;;;;0.00;0.00;;;;;;;6.23;75.92;97196.03;5056832;28;20277;-71
2023/04/10 05:29:09;;;;;;;0.10;0.10;;;;;;;6.18;75.63;97198.41;5072746;28;20491;-71
2023/04/10 05:31:34;;;;;;;0.07;0.07;;;;;;;6.27;75.80;97201.66;5074697;28;20654;-71
2023/04/10 05:33:59;;;;;;;0.10;0.10;;;;;;;6.33;75.81;97202.72;5076559;28;20531;-71
2023/04/10 05:36:25;;;;;;;0.10;0.10;;;;;;;6.54;74.83;97200.03;5075672;28;20587;-71
2023/04/10 05:38:50;;;;;;;0.07;0.07;;;;;;;6.65;74.19;97207.31;5058503;28;20275;-71
2023/04/10 05:41:16;;;;;;;0.10;0.10;;;;;;;6.84;73.72;97196.22;5076313;28;20653;-71
2023/04/10 05:43:41;;;;;;;0.10;0.10;;;;;;;6.78;73.11;97204.81;5076585;28;20650;-70
2023/04/10 05:46:07;;;;;;;0.10;0.10;;;;;;;6.79;73.13;97203.00;5076384;28;20780;-70
2023/04/10 05:48:32;;;;;;;0.10;0.10;;;;;;;6.92;72.12;97196.06;5075918;28;20231;-71
2023/04/10 05:50:57;;;;;;;0.10;0.10;;;;;;;6.86;72.77;97204.63;5075338;28;20216;-70
2023/04/10 05:53:30;;;;;;;0.10;0.10;;;;;;;6.93;71.87;97197.66;5076093;28;20207;-70
2023/04/10 05:55:55;;;;;;;0.10;0.10;;;;;;;7.07;70.64;97206.38;5076206;28;20169;-70
2023/04/10 05:58:20;;;;;;;0.10;0.10;;;;;;;6.91;70.97;97204.88;5076105;28;20774;-70
2023/04/10 06:00:46;;;;;;;0.10;0.10;;;;;;;7.06;71.07;97204.75;5075891;28;20189;-70
2023/04/10 06:03:11;;;;;;;0.10;0.10;;;;;;;7.13;69.81;97205.59;5075915;28;20200;-71
2023/04/10 06:05:36;;;;;;;0.10;0.10;;;;;;;6.91;70.66;97210.06;5048995;28;20205;-71
2023/04/10 06:08:02;;;;;;;0.00;0.00;;;;;;;7.22;69.98;97207.03;5075195;28;20186;-70
2023/04/10 06:10:31;;;;;;;0.10;0.10;;;;;;;7.12;68.82;97208.38;5075915;28;20710;-70
2023/04/10 06:12:56;;;;;;;0.10;0.10;;;;;;;7.26;68.21;97207.44;5075669;28;20231;-70
2023/04/10 06:15:21;;;;;;;0.00;0.00;;;;;;;7.29;67.85;97212.25;5075113;28;20681;-70
2023/04/10 06:17:47;;;;;;;0.10;0.10;;;;;;;7.21;68.83;97207.22;5075480;28;20195;-70
2023/04/10 06:20:12;;;;;;;0.10;0.10;;;;;;;7.30;68.82;97198.25;5075409;28;20338;-70
2023/04/10 06:22:37;;;;;;;0.10;0.10;;;;;;;7.43;68.63;97206.88;5075709;28;20225;-71
2023/04/10 06:25:04;;;;;;;0.10;0.10;;;;;;;7.57;67.77;97205.13;5075239;28;20178;-71
2023/04/10 06:27:30;;;;;;;0.10;0.10;;;;;;;7.64;67.25;97205.94;5075419;28;20259;-70
2023/04/10 06:29:55;;;;;;;0.10;0.10;;;;;;;7.57;67.55;97205.13;5057735;28;20177;-70
2023/04/10 06:32:21;;;;;;;0.10;0.10;;;;;;;7.70;67.52;97205.16;5075274;28;20292;-71
2023/04/10 06:34:46;;;;;;;0.10;0.10;;;;;;;7.59;67.78;97208.34;5075377;28;20208;-71
2023/04/10 06:37:12;;;;;;;0.10;0.10;;;;;;;7.53;67.08;97217.75;5058534;28;20268;-71
2023/04/10 06:39:38;;;;;;;0.00;0.00;;;;;;;7.77;67.38;97213.78;5075656;28;20185;-71
2023/04/10 06:42:03;;;;;;;0.10;0.10;;;;;;;7.93;67.17;97212.63;5057587;28;20717;-71
2023/04/10 06:44:29;;;;;;;0.10;0.10;;;;;;;8.04;66.42;97206.00;5074988;28;20277;-71
2023/04/10 06:46:54;;;;;;;0.10;0.10;;;;;;;7.98;65.85;97209.41;5074770;28;20181;-73
2023/04/10 06:49:20;;;;;;;0.10;0.10;;;;;;;8.12;65.67;97211.03;5074669;28;20185;-74
2023/04/10 06:51:47;;;;;;;0.10;0.10;;;;;;;8.19;65.35;97201.41;5077901;28;20216;-73
2023/04/10 06:54:12;;;;;;;0.10;0.10;;;;;;;8.36;65.07;97201.84;5074885;28;20713;-73
2023/04/10 06:56:38;;;;;;;0.10;0.10;;;;;;;8.44;65.35;97201.59;5075246;28;20268;-73
2023/04/10 06:59:03;;;;;;;0.10;0.10;;;;;;;8.61;64.41;97206.22;5056863;28;20286;-73
2023/04/10 07:01:29;;;;;;;0.00;0.00;;;;;;;8.93;65.38;97201.09;5074813;28;20260;-74
2023/04/10 07:03:55;;;;;;;0.10;0.10;;;;;;;9.00;65.80;97202.69;5073907;28;20185;-73
2023/04/10 07:06:20;;;;;;;0.10;0.10;;;;;;;9.21;65.22;97206.84;5074668;28;20193;-72
2023/04/10 07:08:48;;;;;;;0.10;0.10;;;;;;;9.50;66.00;97208.13;5074792;28;20557;-72
2023/04/10 07:11:13;;;;;;;0.10;0.10;;;;;;;9.58;64.72;97210.53;5058167;28;20653;-72
2023/04/10 07:13:38;;;;;;;0.10;0.10;;;;;;;9.91;63.05;97205.09;5074138;28;20181;-73
2023/04/10 07:16:05;;;;;;;0.10;0.10;;;;;;;10.11;61.42;97194.47;5074202;28;20300;-73
2023/04/10 07:18:30;;;;;;;0.00;0.00;;;;;;;9.94;61.00;97192.38;5074052;28;20636;-74
2023/04/10 07:20:56;;;;;;;0.00;0.00;;;;;;;10.07;61.12;97195.91;5056482;28;20213;-73
2023/04/10 07:23:21;;;;;;;0.00;0.00;;;;;;;9.96;60.73;97192.16;5074749;28;20232;-73
2023/04/10 07:25:47;;;;;;;0.00;0.00;;;;;;;10.26;60.20;97189.72;5074653;28;20181;-73
2023/04/10 07:28:12;;;;;;;0.10;0.10;;;;;;;10.29;58.79;97191.94;5074451;28;20258;-73
2023/04/10 07:30:37;;;;;;;0.03;0.03;;;;;;;10.28;57.15;97183.25;5073836;28;20192;-73
2023/04/10 07:33:03;;;;;;;0.10;0.10;;;;;;;10.42;56.88;97189.22;5073828;28;20205;-73
2023/04/10 07:35:28;;;;;;;0.00;0.00;;;;;;;10.66;57.02;97188.34;5074342;28;20180;-72
2023/04/10 07:37:54;;;;;;;0.10;0.10;;;;;;;10.80;56.06;97195.09;5074098;28;20216;-72
2023/04/10 07:40:19;;;;;;;0.00;0.00;;;;;;;10.82;55.99;97198.28;5074536;28;20188;-72
2023/04/10 07:42:45;;;;;;;0.10;0.10;;;;;;;11.04;79.65;97184.72;5074186;28;20177;-71
2023/04/10 07:45:11;;;;;;;0.00;0.00;;;;;;;12.06;55.48;97187.22;5074190;28;20231;-72
2023/04/10 07:47:36;;;;;;;0.07;0.07;;;;;;;11.58;54.02;97192.53;5073433;28;20235;-72
2023/04/10 07:50:03;;;;;;;0.10;0.10;;;;;;;11.50;54.63;97190.22;5039732;28;20599;-73
2023/04/10 07:52:28;;;;;;;0.00;0.00;;;;;;;11.54;54.03;97195.81;5073419;28;20540;-73
2023/04/10 07:54:54;;;;;;;0.10;0.10;;;;;;;11.68;53.67;97192.81;5057873;28;20193;-71
2023/04/10 07:57:19;;;;;;;0.10;0.10;;;;;;;11.54;52.66;97198.44;5055501;28;20920;-75
2023/04/10 07:59:45;;;;;;;0.10;0.10;;;;;;;11.34;52.81;97188.22;5046951;28;20188;-73
2023/04/10 08:02:10;;;;;;;0.00;0.00;;;;;;;11.22;53.79;97200.47;5067396;28;20646;-73
2023/04/10 08:04:36;;;;;;;0.07;0.07;;;;;;;11.18;53.67;97197.50;5073546;28;20253;-73
2023/04/10 08:07:01;;;;;;;0.00;0.00;;;;;;;11.17;53.33;97190.63;5072682;28;20192;-72
2023/04/10 08:09:26;;;;;;;0.00;0.00;;;;;;;11.32;53.70;97177.13;5056551;28;20269;-73
2023/04/10 08:11:52;;;;;;;0.00;0.00;;;;;;;11.61;54.09;97184.22;5056253;28;20193;-73
2023/04/10 08:14:17;;;;;;;0.10;0.10;;;;;;;11.79;53.56;97183.38;5072472;28;20173;-72
2023/04/10 08:16:42;;;;;;;0.10;0.10;;;;;;;11.98;53.04;97179.66;5073140;28;20667;-72
2023/04/10 08:19:08;;;;;;;0.00;0.00;;;;;;;12.17;52.80;97182.22;5073198;28;20178;-72
2023/04/10 08:21:33;;;;;;;0.07;0.07;;;;;;;12.02;50.91;97183.44;5072716;28;20185;-73
2023/04/10 08:24:01;;;;;;;0.10;0.10;;;;;;;11.95;50.93;97187.19;5070233;28;20212;-73
2023/04/10 08:26:28;;;;;;;0.10;0.10;;;;;;;11.84;49.53;97188.78;5063665;28;20189;-74
2023/04/10 08:28:56;;;;;;;0.10;0.10;;;;;;;11.41;50.84;97183.69;5060861;28;21099;-72
2023/04/10 08:31:23;;;;;;;0.07;0.07;;;;;;;11.54;51.15;97186.13;5052673;28;20198;-72
2023/04/10 08:33:49;;;;;;;0.10;0.10;;;;;;;11.77;50.40;97189.88;5049191;28;21067;-74
2023/04/10 08:36:15;;;;;;;0.10;0.10;;;;;;;11.60;51.31;97187.06;5047923;28;20178;-72
2023/04/10 08:38:41;;;;;;;0.00;0.00;;;;;;;11.84;50.50;97183.50;5072723;28;20177;-74
2023/04/10 08:41:10;;;;;;;0.00;0.00;;;;;;;11.86;50.18;97183.31;5057686;28;20181;-73
2023/04/10 08:43:35;;;;;;;0.07;0.07;;;;;;;11.70;49.90;97178.66;5073563;28;20192;-73
2023/04/10 08:46:01;;;;;;;0.00;0.00;;;;;;;11.56;49.84;97176.19;5073356;28;20181;-73
2023/04/10 08:48:36;;;;;;;0.00;0.00;;;;;;;11.72;50.30;97174.78;5072371;28;20189;-73
2023/04/10 08:51:04;;;;;;;0.10;0.10;;;;;;;12.04;48.63;97170.06;5075062;28;20199;-73
2023/04/10 08:53:30;;;;;;;0.10;0.10;;;;;;;12.09;47.21;97176.25;5072326;28;20189;-72
2023/04/10 08:55:56;;;;;;;0.10;0.10;;;;;;;12.29;47.06;97172.50;5072376;28;20185;-73
2023/04/10 08:58:23;;;;;;;0.10;0.10;;;;;;;12.69;46.96;97170.81;5071992;28;20706;-70
2023/04/10 09:00:49;;;;;;;0.10;0.10;;;;;;;12.47;46.56;97177.69;5072215;28;20371;-70
2023/04/10 09:03:18;;;;;;;0.10;0.10;;;;;;;12.41;46.12;97168.06;5072638;28;20261;-72
2023/04/10 09:05:43;;;;;;;0.10;0.10;;;;;;;12.62;46.66;97169.31;5071512;28;20189;-73
2023/04/10 09:08:10;;;;;;;0.00;0.00;;;;;;;12.95;45.39;97168.69;5072599;28;20185;-72
2023/04/10 09:10:36;;;;;;;0.00;0.00;;;;;;;12.77;44.96;97167.81;5064022;28;20177;-74
2023/04/10 09:13:01;;;;;;;0.00;0.00;;;;;;;12.88;45.47;97164.38;5062094;28;20661;-71
2023/04/10 09:15:27;;;;;;;0.00;0.00;;;;;;;12.37;45.23;97159.06;5071720;28;20177;-72
2023/04/10 09:18:00;;;;;;;0.00;0.00;;;;;;;12.37;45.33;97165.06;5072375;28;20200;-72
2023/04/10 09:20:28;;;;;;;0.00;0.00;;;;;;;12.56;45.23;97165.78;5072001;28;20669;-72
2023/04/10 09:22:53;;;;;;;0.00;0.00;;;;;;;12.66;45.08;97166.00;5063706;28;20243;-71
2023/04/10 09:25:32;;;;;;;0.00;0.00;;;;;;;12.80;44.79;97166.56;5072410;28;20263;-71
2023/04/10 09:28:08;;;;;;;0.00;0.00;;;;;;;12.93;44.22;97161.03;5071795;28;20181;-72
2023/04/10 09:30:39;;;;;;;0.00;0.00;;;;;;;13.14;44.65;97159.66;5072349;28;20181;-76
2023/04/10 09:33:23;;;;;;;0.00;0.00;;;;;;;13.36;44.82;97157.19;5072174;28;20254;-72
2023/04/10 09:35:49;;;;;;;0.10;0.10;;;;;;;13.30;43.53;97153.66;5071899;28;20185;-73
2023/04/10 09:38:15;;;;;;;0.10;0.10;;;;;;;13.26;44.62;97149.91;5072082;28;20654;-74
2023/04/10 09:40:41;;;;;;;0.00;0.00;;;;;;;13.30;44.37;97140.50;5072042;28;20185;-74
2023/04/10 09:43:24;;;;;;;0.10;0.10;;;;;;;12.57;44.06;97133.19;5071829;28;20292;-73
2023/04/10 09:45:55;;;;;;;0.00;0.00;;;;;;;13.05;45.53;97127.59;5071940;28;20181;-72
2023/04/10 09:48:21;;;;;;;0.10;0.10;;;;;;;13.30;43.94;97129.97;5071913;28;20181;-72
2023/04/10 09:50:47;;;;;;;0.00;0.00;;;;;;;13.44;43.83;97128.63;5075512;28;20193;-75
2023/04/10 09:53:18;;;;;;;0.00;0.00;;;;;;;13.44;43.33;97120.72;5071946;28;20251;-72
2023/04/10 09:55:48;;;;;;;0.00;0.00;;;;;;;13.58;43.30;97105.44;5071812;28;20256;-72
2023/04/10 09:58:15;;;;;;;0.10;0.10;;;;;;;13.04;42.95;97098.91;5071541;28;20177;-73
2023/04/10 10:00:44;;;;;;;0.00;0.00;;;;;;;12.88;43.46;97105.69;5071844;28;20185;-73
2023/04/10 10:03:12;;;;;;;0.10;0.10;;;;;;;13.08;43.39;97106.09;5071493;28;20238;-73
2023/04/10 10:05:40;;;;;;;0.00;0.00;;;;;;;13.23;43.26;97101.13;5071473;28;20188;-72
2023/04/10 10:08:08;;;;;;;0.10;0.10;;;;;;;13.58;42.45;97094.91;5063244;28;20200;-74
2023/04/10 10:10:37;;;;;;;0.10;0.10;;;;;;;13.70;41.49;97090.38;5071597;28;20207;-73
2023/04/10 10:13:03;;;;;;;0.00;0.00;;;;;;;13.88;41.91;97090.13;5071322;28;20268;-74
2023/04/10 10:15:37;;;;;;;0.10;0.10;;;;;;;14.08;41.92;97085.19;5070851;28;20189;-74
2023/04/10 10:18:21;;;;;;;0.00;0.00;;;;;;;14.26;40.11;97080.69;5073828;28;20199;-73
2023/04/10 10:20:49;;;;;;;0.00;0.00;;;;;;;14.31;39.85;97067.59;5075370;28;20271;-71
2023/04/10 10:23:14;;;;;;;0.00;0.00;;;;;;;14.14;40.06;97078.97;5075598;28;20248;-73
2023/04/10 10:25:42;;;;;;;0.10;0.10;;;;;;;14.31;40.83;97065.75;5074835;28;20216;-73
2023/04/10 10:28:11;;;;;;;0.00;0.00;;;;;;;14.61;40.72;97059.28;5075366;28;20630;-73
2023/04/10 10:30:37;;;;;;;0.10;0.10;;;;;;;14.83;38.01;97066.16;5075378;28;20185;-74
2023/04/10 10:33:05;;;;;;;0.00;0.00;;;;;;;14.86;35.21;97065.69;5074937;28;20201;-73
2023/04/10 10:35:33;;;;;;;0.10;0.10;;;;;;;14.90;35.18;97053.59;5075919;28;20234;-74
2023/04/10 10:37:59;;;;;;;0.00;0.00;;;;;;;15.10;35.20;97053.00;5075670;28;20292;-72
2023/04/10 10:40:30;;;;;;;0.10;0.10;;;;;;;15.10;37.12;97047.72;5072153;28;20204;-73
2023/04/10 10:43:18;;;;;;;0.00;0.00;;;;;;;15.06;35.51;97043.19;5075174;28;20642;-73
2023/04/10 10:45:50;;;;;;;0.10;0.10;;;;;;;15.13;34.16;97043.78;5075184;28;20192;-74
2023/04/10 10:48:15;;;;;;;0.00;0.00;;;;;;;15.40;33.87;97047.22;5075219;28;20219;-74
2023/04/10 10:50:51;;;;;;;0.00;0.00;;;;;;;15.70;33.66;97038.78;5084202;28;20217;-74
2023/04/10 10:53:32;;;;;;;0.00;0.00;;;;;;;15.70;33.44;97039.59;5069574;28;20218;-73
2023/04/10 10:55:58;;;;;;;0.00;0.00;;;;;;;15.91;34.14;97031.81;5071656;28;20276;-74
2023/04/10 10:58:46;;;;;;;0.00;0.00;;;;;;;15.92;33.07;97034.19;5074532;28;20263;-74
2023/04/10 11:01:12;;;;;;;0.08;0.08;;;;;;;16.08;32.75;97029.81;5074498;28;20178;-73
2023/04/10 11:03:38;;;;;;;0.00;0.00;;;;;;;16.22;32.31;97018.50;5074743;28;20189;-73
2023/04/10 11:06:07;;;;;;;0.00;0.00;;;;;;;16.31;31.96;97023.31;5074496;28;20235;-74
2023/04/10 11:08:35;;;;;;;0.00;0.00;;;;;;;16.20;31.33;97019.84;5074485;28;20181;-73
2023/04/10 11:11:06;;;;;;;0.00;0.00;;;;;;;16.08;32.22;97020.03;5074201;28;20193;-73
2023/04/10 11:13:39;;;;;;;0.00;0.00;;;;;;;15.98;31.75;97019.97;5074115;28;20185;-73
2023/04/10 11:16:06;;;;;;;0.00;0.00;;;;;;;15.88;32.25;97019.09;5073592;28;20252;-73
2023/04/10 11:19:06;;;;;;;0.00;0.00;;;;;;;15.93;32.02;97012.00;5074757;28;20200;-72
2023/04/10 11:21:31;;;;;;;0.10;0.10;;;;;;;15.95;31.86;97020.47;5067929;28;20200;-73
2023/04/10 11:23:57;;;;;;;0.00;0.00;;;;;;;15.89;31.82;97012.75;5073849;28;20610;-72
2023/04/10 11:26:34;;;;;;;0.00;0.00;;;;;;;15.91;32.05;97006.16;5074027;28;20189;-71
2023/04/10 11:29:16;;;;;;;0.00;0.00;;;;;;;15.94;32.56;97007.53;5073163;28;20269;-74
2023/04/10 11:31:43;;;;;;;0.00;0.00;;;;;;;15.84;32.09;97002.13;5074257;28;20201;-73
2023/04/10 11:34:12;;;;;;;0.00;0.00;;;;;;;15.78;32.29;97010.03;5073649;28;20189;-72
2023/04/10 11:36:43;;;;;;;0.00;0.00;;;;;;;15.58;30.98;97003.81;5055693;28;20509;-72
2023/04/10 11:39:14;;;;;;;0.10;0.10;;;;;;;15.28;30.87;96993.75;5074228;28;20173;-71
2023/04/10 11:41:45;;;;;;;0.00;0.00;;;;;;;14.84;31.72;96993.06;5074245;28;20243;-73